Time;durP1;ratioP1;P1;durP2;ratioP2;P2;SDS_P1;SDS_P2;PMS_P1;PMS_P2;Temp;Humidity;BMP_temperature;BMP_pressure;BME280_temperature;BME280_humidity;BME280_pressure;Samples;Min_cycle;Max_cycle;Signal;HPM_P1;HPM_P2
2023/04/22 00:00:12;;;;;;;10.73;8.67;;;;;;;8.81;76.87;93111.84;515740;28;848;-57
2023/04/22 00:00:27;;;;;;;12.20;8.90;;;;;;;8.80;77.14;93108.34;513889;28;817;-57
2023/04/22 00:00:43;;;;;;;11.40;8.57;;;;;;;8.82;77.04;93110.56;513984;28;872;-57
2023/04/22 00:00:58;;;;;;;10.97;8.20;;;;;;;8.68;76.84;93090.72;515382;28;871;-56
2023/04/22 00:01:14;;;;;;;10.85;8.35;;;;;;;8.71;77.28;93113.63;515858;28;1084;-56
2023/04/22 00:01:29;;;;;;;9.50;7.90;;;;;;;8.66;77.14;93109.78;515805;28;923;-57
2023/04/22 00:01:44;;;;;;;8.80;7.60;;;;;;;8.64;77.71;93106.81;514065;28;1735;-57
2023/04/22 00:02:01;;;;;;;9.03;8.07;;;;;;;8.64;77.82;93106.09;515539;28;788;-57
2023/04/22 00:02:18;;;;;;;9.93;7.90;;;;;;;8.61;77.71;93109.94;515911;28;886;-57
2023/04/22 00:02:35;;;;;;;9.70;7.80;;;;;;;8.60;77.79;93111.22;515969;28;846;-57
2023/04/22 00:02:51;;;;;;;9.82;8.27;;;;;;;8.53;78.27;93109.16;514449;28;1134;-56
2023/04/22 00:03:07;;;;;;;9.77;7.80;;;;;;;8.45;78.35;93111.88;515889;28;830;-57
2023/04/22 00:03:22;;;;;;;11.03;7.77;;;;;;;8.44;78.53;93106.94;515782;28;824;-57
2023/04/22 00:03:40;;;;;;;10.27;7.70;;;;;;;8.42;79.00;93112.97;515779;28;833;-57
2023/04/22 00:03:56;;;;;;;9.70;7.75;;;;;;;8.37;79.26;93106.34;516083;28;1595;-57
2023/04/22 00:04:11;;;;;;;9.57;7.83;;;;;;;8.38;79.22;93109.84;515734;28;1127;-55
2023/04/22 00:04:27;;;;;;;8.52;7.63;;;;;;;8.40;79.28;93107.28;515822;28;1082;-57
2023/04/22 00:04:45;;;;;;;10.05;7.38;;;;;;;8.46;79.16;93113.34;515801;28;806;-56
2023/04/22 00:05:02;;;;;;;12.38;7.15;;;;;;;8.53;78.96;93107.16;516075;28;896;-57
2023/04/22 00:05:18;;;;;;;10.88;7.18;;;;;;;8.57;79.05;93104.78;514652;28;1158;-57
2023/04/22 00:05:33;;;;;;;9.15;7.65;;;;;;;8.64;78.56;93109.56;514795;28;900;-57
2023/04/22 00:05:49;;;;;;;9.07;7.43;;;;;;;8.69;78.30;93105.94;515666;28;1216;-56
2023/04/22 00:06:04;;;;;;;8.27;6.97;;;;;;;8.74;77.94;93101.53;515881;28;1132;-57
2023/04/22 00:06:20;;;;;;;8.80;7.03;;;;;;;8.78;77.83;93105.41;515740;28;852;-55
2023/04/22 00:06:35;;;;;;;10.03;7.97;;;;;;;8.82;77.82;93105.78;514802;28;804;-57
2023/04/22 00:06:51;;;;;;;9.32;7.75;;;;;;;8.87;77.56;93107.66;516022;28;872;-57
2023/04/22 00:07:06;;;;;;;9.30;7.03;;;;;;;8.90;77.12;93101.03;515586;28;1145;-57
2023/04/22 00:07:22;;;;;;;12.68;7.20;;;;;;;8.94;77.05;93101.41;513578;28;1413;-56
2023/04/22 00:07:41;;;;;;;12.37;7.53;;;;;;;8.97;76.72;93111.34;510950;29;961;-57
2023/04/22 00:07:57;;;;;;;10.63;7.50;;;;;;;9.01;76.60;93110.97;510989;28;992;-56
2023/04/22 00:08:12;;;;;;;9.00;7.10;;;;;;;9.03;76.57;93109.16;511722;28;832;-56
2023/04/22 00:08:28;;;;;;;7.95;7.00;;;;;;;9.05;76.20;93106.59;511622;28;950;-57
2023/04/22 00:08:43;;;;;;;8.50;7.03;;;;;;;9.08;76.07;93108.25;512417;28;1097;-57
2023/04/22 00:08:58;;;;;;;9.00;7.60;;;;;;;9.10;76.24;93102.19;513984;28;808;-56
2023/04/22 00:09:14;;;;;;;10.23;7.75;;;;;;;9.10;75.81;93100.19;514511;28;1035;-56
2023/04/22 00:09:29;;;;;;;9.63;7.10;;;;;;;9.11;75.70;93104.41;515684;28;822;-55
2023/04/22 00:09:45;;;;;;;11.07;7.45;;;;;;;9.09;75.83;93104.22;515881;28;876;-56
2023/04/22 00:10:00;;;;;;;10.83;7.83;;;;;;;9.07;75.67;93097.81;515704;28;1756;-57
2023/04/22 00:10:15;;;;;;;8.13;7.32;;;;;;;9.04;76.03;93104.38;515098;28;1128;-57
2023/04/22 00:10:31;;;;;;;8.77;6.90;;;;;;;9.03;75.97;93098.13;515863;28;856;-57
2023/04/22 00:10:46;;;;;;;10.23;7.53;;;;;;;9.04;75.76;93102.38;515844;28;834;-57
2023/04/22 00:11:02;;;;;;;11.02;7.95;;;;;;;8.99;75.81;93092.25;517703;28;773;-56
2023/04/22 00:11:17;;;;;;;10.35;7.53;;;;;;;9.06;76.06;93097.06;515735;28;826;-57
2023/04/22 00:11:33;;;;;;;9.13;7.40;;;;;;;9.08;75.98;93100.00;515870;28;920;-57
2023/04/22 00:11:48;;;;;;;9.43;7.60;;;;;;;9.10;76.00;93105.69;515840;28;1130;-57
2023/04/22 00:12:04;;;;;;;10.00;7.93;;;;;;;9.12;76.23;93097.63;514048;28;846;-58
2023/04/22 00:12:19;;;;;;;10.20;7.53;;;;;;;9.13;76.01;93101.13;516976;28;1068;-58
2023/04/22 00:12:35;;;;;;;9.40;7.00;;;;;;;9.12;75.98;93099.63;517871;28;789;-58
2023/04/22 00:12:50;;;;;;;9.27;7.40;;;;;;;9.08;76.19;93094.50;517935;28;817;-58
2023/04/22 00:13:06;;;;;;;9.52;7.88;;;;;;;9.15;76.31;93101.28;515637;28;1727;-58
2023/04/22 00:13:21;;;;;;;9.83;7.97;;;;;;;9.16;76.15;93095.22;513792;28;979;-58
2023/04/22 00:13:36;;;;;;;11.60;8.23;;;;;;;9.15;76.19;93096.53;513758;28;916;-58
2023/04/22 00:13:52;;;;;;;11.07;8.40;;;;;;;9.18;76.38;93105.72;514898;28;1172;-58
2023/04/22 00:14:07;;;;;;;10.07;8.80;;;;;;;9.20;76.30;93099.66;515576;28;1988;-58
2023/04/22 00:14:23;;;;;;;12.40;9.45;;;;;;;9.21;76.37;93098.34;513877;28;931;-58
2023/04/22 00:14:38;;;;;;;14.17;11.00;;;;;;;9.22;76.26;93097.09;514083;28;1116;-58
2023/04/22 00:14:54;;;;;;;16.88;12.82;;;;;;;9.22;76.15;93103.34;515484;28;789;-58
2023/04/22 00:15:09;;;;;;;20.23;14.93;;;;;;;9.24;76.04;93100.78;513903;28;777;-58
2023/04/22 00:15:25;;;;;;;21.98;17.20;;;;;;;9.25;76.16;93101.50;513734;28;875;-58
2023/04/22 00:15:41;;;;;;;21.88;16.67;;;;;;;9.25;76.06;93104.97;514432;28;2378;-57
2023/04/22 00:15:56;;;;;;;20.13;14.33;;;;;;;9.26;75.82;93102.97;515417;28;1664;-58
2023/04/22 00:16:12;;;;;;;17.95;13.50;;;;;;;9.26;75.65;93098.19;515601;28;1092;-58
2023/04/22 00:16:27;;;;;;;17.60;14.13;;;;;;;9.27;75.69;93101.69;515639;28;919;-58
2023/04/22 00:16:42;;;;;;;21.73;16.33;;;;;;;9.27;75.58;93107.22;515791;28;795;-57
2023/04/22 00:16:58;;;;;;;24.88;17.92;;;;;;;9.25;75.80;93102.22;515957;28;1221;-58
2023/04/22 00:17:13;;;;;;;24.67;18.20;;;;;;;9.23;75.81;93110.31;515698;28;898;-56
2023/04/22 00:17:29;;;;;;;25.77;18.80;;;;;;;9.20;75.55;93099.66;515611;28;856;-58
2023/04/22 00:17:44;;;;;;;27.13;20.23;;;;;;;9.18;75.82;93100.94;515580;28;1094;-58
2023/04/22 00:18:00;;;;;;;29.05;21.58;;;;;;;9.18;76.05;93097.47;515636;28;829;-58
2023/04/22 00:18:15;;;;;;;28.37;20.03;;;;;;;9.19;75.90;93101.66;515728;28;849;-57
2023/04/22 00:18:34;;;;;;;26.57;19.03;;;;;;;9.09;75.65;93084.97;515706;28;839;-58
2023/04/22 00:18:49;;;;;;;25.80;18.27;;;;;;;9.22;75.72;93105.34;515717;28;1565;-58
2023/04/22 00:19:05;;;;;;;24.30;18.10;;;;;;;9.22;75.59;93111.59;513989;28;778;-58
2023/04/22 00:19:20;;;;;;;22.93;17.97;;;;;;;9.24;75.53;93100.03;515497;28;1104;-58
2023/04/22 00:19:36;;;;;;;24.23;18.35;;;;;;;9.18;75.48;93096.72;515832;28;833;-58
2023/04/22 00:19:51;;;;;;;25.70;18.70;;;;;;;9.19;75.76;93104.44;516263;28;829;-57
2023/04/22 00:20:09;;;;;;;23.00;18.23;;;;;;;9.18;75.33;93103.69;515771;28;838;-57
2023/04/22 00:20:25;;;;;;;23.85;18.10;;;;;;;9.19;75.46;93104.44;514116;28;838;-58
2023/04/22 00:20:42;;;;;;;24.53;18.20;;;;;;;9.20;75.43;93102.41;514231;28;1084;-57
2023/04/22 00:20:58;;;;;;;22.07;17.47;;;;;;;9.21;75.38;93110.13;516106;28;925;-58
2023/04/22 00:21:14;;;;;;;22.87;17.37;;;;;;;9.18;75.26;93102.97;515649;28;1103;-58
2023/04/22 00:21:30;;;;;;;23.67;17.23;;;;;;;9.03;75.15;93087.13;513804;28;818;-57
2023/04/22 00:21:45;;;;;;;23.17;17.23;;;;;;;9.07;75.61;93106.06;513839;28;834;-58
2023/04/22 00:22:01;;;;;;;23.47;17.93;;;;;;;9.02;75.58;93093.19;515733;28;853;-58
2023/04/22 00:22:16;;;;;;;22.80;17.60;;;;;;;8.69;75.79;93052.91;515774;28;1286;-58
2023/04/22 00:22:32;;;;;;;21.95;17.33;;;;;;;9.02;75.82;93102.19;515916;28;818;-58
2023/04/22 00:22:47;;;;;;;23.70;17.67;;;;;;;9.06;75.90;93099.81;515811;28;868;-57
2023/04/22 00:23:02;;;;;;;26.10;18.03;;;;;;;9.08;75.77;93104.75;516037;28;834;-57
2023/04/22 00:23:18;;;;;;;25.05;18.00;;;;;;;9.00;75.80;93104.00;514627;28;884;-58
2023/04/22 00:23:33;;;;;;;22.53;17.53;;;;;;;8.90;75.69;93106.53;513883;28;872;-57
2023/04/22 00:23:49;;;;;;;22.83;17.77;;;;;;;8.81;76.03;93101.59;515323;28;1096;-57
2023/04/22 00:24:04;;;;;;;22.30;17.53;;;;;;;8.82;76.08;93102.31;515972;28;837;-57
2023/04/22 00:24:20;;;;;;;22.50;18.08;;;;;;;8.82;76.20;93103.03;514031;28;900;-57
2023/04/22 00:24:35;;;;;;;24.50;19.10;;;;;;;8.86;76.22;93100.66;513808;28;959;-58
2023/04/22 00:24:50;;;;;;;25.67;19.27;;;;;;;8.89;76.29;93096.84;514491;28;781;-57
2023/04/22 00:25:06;;;;;;;27.20;19.33;;;;;;;8.84;76.38;93089.47;513760;28;864;-58
2023/04/22 00:25:22;;;;;;;24.77;18.58;;;;;;;8.96;75.96;93106.41;513643;28;1258;-58
2023/04/22 00:25:38;;;;;;;25.00;19.00;;;;;;;8.98;75.83;93099.06;513867;28;892;-58
2023/04/22 00:25:53;;;;;;;24.58;18.70;;;;;;;9.00;75.94;93104.75;514804;28;1720;-58
2023/04/22 00:26:09;;;;;;;23.33;18.58;;;;;;;8.98;75.83;93096.31;515621;28;897;-58
2023/04/22 00:26:24;;;;;;;24.10;19.00;;;;;;;9.05;75.54;93111.38;515610;28;863;-58
2023/04/22 00:26:40;;;;;;;25.60;19.15;;;;;;;9.05;75.76;93103.84;515661;28;1115;-57
2023/04/22 00:26:55;;;;;;;26.90;19.80;;;;;;;9.09;75.50;93103.50;515998;28;797;-58
2023/04/22 00:27:11;;;;;;;26.40;20.23;;;;;;;9.09;75.18;93100.75;515637;28;870;-57
2023/04/22 00:27:26;;;;;;;29.80;21.58;;;;;;;9.10;75.12;93096.69;515622;28;821;-58
2023/04/22 00:27:42;;;;;;;30.10;21.87;;;;;;;9.12;75.03;93105.88;513693;28;924;-57
2023/04/22 00:27:57;;;;;;;28.65;21.30;;;;;;;9.12;74.99;93103.13;515007;28;869;-58
2023/04/22 00:28:12;;;;;;;29.30;21.30;;;;;;;9.12;74.93;93107.88;515644;28;1178;-58
2023/04/22 00:28:28;;;;;;;30.15;22.55;;;;;;;9.12;75.06;93102.38;514993;28;1822;-57
2023/04/22 00:28:43;;;;;;;32.70;24.63;;;;;;;9.12;74.90;93105.13;513636;28;842;-57
2023/04/22 00:28:59;;;;;;;32.93;23.70;;;;;;;9.06;75.05;93105.31;515296;28;889;-57
2023/04/22 00:29:14;;;;;;;31.25;21.73;;;;;;;8.93;74.98;93108.22;515664;28;804;-58
2023/04/22 00:29:30;;;;;;;32.78;21.90;;;;;;;8.76;75.57;93105.22;515429;28;1085;-57
2023/04/22 00:29:45;;;;;;;29.27;20.90;;;;;;;8.62;76.19;93105.91;515777;28;1103;-57
2023/04/22 00:30:00;;;;;;;27.30;20.20;;;;;;;8.60;76.55;93109.19;516126;28;834;-56
2023/04/22 00:30:16;;;;;;;33.33;20.67;;;;;;;8.55;76.90;93104.59;515835;28;859;-58
2023/04/22 00:30:31;;;;;;;39.37;20.90;;;;;;;8.39;76.89;93087.28;515779;28;881;-57
2023/04/22 00:30:47;;;;;;;40.75;20.88;;;;;;;8.45;77.46;93105.63;514208;28;1060;-57
2023/04/22 00:31:03;;;;;;;36.73;20.37;;;;;;;8.37;77.78;93105.59;516044;28;782;-57
2023/04/22 00:31:19;;;;;;;32.30;20.40;;;;;;;8.33;77.89;93102.47;513648;28;1691;-58
2023/04/22 00:31:34;;;;;;;32.05;21.08;;;;;;;8.34;78.32;93109.44;513807;28;817;-58
2023/04/22 00:31:50;;;;;;;32.03;20.93;;;;;;;8.34;78.25;93109.44;514136;28;856;-57
2023/04/22 00:32:05;;;;;;;36.67;20.25;;;;;;;8.34;78.47;93103.94;515747;28;865;-57
2023/04/22 00:32:21;;;;;;;35.47;20.03;;;;;;;8.33;78.46;93105.22;515836;28;1001;-57
2023/04/22 00:32:37;;;;;;;26.45;18.92;;;;;;;8.33;78.56;93105.22;515748;28;958;-57
2023/04/22 00:32:52;;;;;;;26.92;17.98;;;;;;;8.32;78.43;93112.72;516042;28;1150;-57
2023/04/22 00:33:08;;;;;;;27.33;18.03;;;;;;;8.34;78.26;93106.69;515765;28;869;-57
2023/04/22 00:33:24;;;;;;;26.35;17.60;;;;;;;8.30;78.29;93106.31;514648;28;1642;-57
2023/04/22 00:33:39;;;;;;;25.35;17.58;;;;;;;8.28;78.45;93108.84;513873;28;853;-57
2023/04/22 00:33:55;;;;;;;23.20;17.20;;;;;;;8.21;78.38;93104.75;514350;28;1625;-57
2023/04/22 00:34:10;;;;;;;24.87;16.83;;;;;;;8.08;78.75;93104.88;513994;28;1923;-58
2023/04/22 00:34:26;;;;;;;27.15;16.88;;;;;;;8.02;78.97;93103.53;515823;28;868;-58
2023/04/22 00:34:41;;;;;;;28.33;16.43;;;;;;;7.93;79.48;93106.78;515837;28;896;-57
2023/04/22 00:34:56;;;;;;;28.30;17.03;;;;;;;7.80;79.98;93104.84;515950;28;877;-57
2023/04/22 00:35:12;;;;;;;24.73;16.98;;;;;;;7.73;80.30;93111.06;515875;28;821;-57
2023/04/22 00:35:27;;;;;;;21.20;15.90;;;;;;;7.73;80.57;93113.06;515692;28;870;-57
2023/04/22 00:35:45;;;;;;;19.40;14.90;;;;;;;7.58;80.94;93108.16;515622;28;1143;-58
2023/04/22 00:36:00;;;;;;;22.52;14.43;;;;;;;7.43;81.44;93099.81;515711;28;1084;-58
2023/04/22 00:36:15;;;;;;;21.70;14.67;;;;;;;7.50;81.92;93107.38;515636;28;931;-57
2023/04/22 00:36:31;;;;;;;17.88;14.00;;;;;;;7.46;81.98;93104.97;515482;28;845;-58
2023/04/22 00:36:47;;;;;;;16.40;12.63;;;;;;;7.59;82.00;93106.91;513605;28;861;-58
2023/04/22 00:37:02;;;;;;;14.65;12.30;;;;;;;7.67;82.08;93112.47;513902;28;853;-56
2023/04/22 00:37:17;;;;;;;16.53;12.30;;;;;;;7.70;81.85;93111.38;513449;28;1624;-57
2023/04/22 00:37:33;;;;;;;17.70;11.75;;;;;;;7.79;81.60;93110.91;512178;28;838;-57
2023/04/22 00:37:49;;;;;;;16.00;11.83;;;;;;;7.84;81.46;93102.50;513704;28;845;-58
2023/04/22 00:38:04;;;;;;;16.33;11.27;;;;;;;7.88;81.10;93107.66;511698;28;1210;-58
2023/04/22 00:38:20;;;;;;;16.10;10.70;;;;;;;7.87;80.79;93109.69;511656;28;839;-58
2023/04/22 00:38:35;;;;;;;12.70;10.43;;;;;;;7.86;80.71;93102.69;512072;28;893;-57
2023/04/22 00:38:51;;;;;;;12.83;10.03;;;;;;;7.88;80.83;93113.16;513821;28;1147;-58
2023/04/22 00:39:06;;;;;;;15.13;10.65;;;;;;;7.83;80.59;93097.56;511658;28;1677;-58
2023/04/22 00:39:21;;;;;;;16.70;10.83;;;;;;;7.92;80.45;93110.81;513480;28;837;-58
2023/04/22 00:39:38;;;;;;;15.57;10.45;;;;;;;7.94;80.18;93106.25;513603;28;888;-57
2023/04/22 00:39:53;;;;;;;14.88;10.38;;;;;;;7.99;80.29;93107.38;512354;28;871;-57
2023/04/22 00:40:10;;;;;;;13.37;9.80;;;;;;;8.03;80.03;93107.78;513589;28;837;-58
2023/04/22 00:40:25;;;;;;;14.15;9.20;;;;;;;8.04;79.77;93109.97;513538;28;1096;-57
2023/04/22 00:40:40;;;;;;;16.43;9.70;;;;;;;8.08;80.07;93104.88;513702;28;811;-57
2023/04/22 00:40:56;;;;;;;16.30;10.10;;;;;;;8.06;79.65;93103.94;513867;28;1582;-58
2023/04/22 00:41:12;;;;;;;14.80;9.80;;;;;;;8.14;79.82;93107.47;513696;28;896;-58
2023/04/22 00:41:27;;;;;;;16.40;10.10;;;;;;;8.15;79.29;93109.69;513541;28;801;-58
2023/04/22 00:41:43;;;;;;;16.67;9.90;;;;;;;8.16;79.13;93113.16;513739;28;815;-58
2023/04/22 00:41:59;;;;;;;14.55;10.13;;;;;;;8.17;79.12;93109.13;515575;28;1605;-58
2023/04/22 00:42:15;;;;;;;14.30;10.70;;;;;;;8.11;79.23;93109.28;513911;28;861;-58
2023/04/22 00:42:30;;;;;;;14.65;10.63;;;;;;;8.06;79.29;93106.69;513792;28;857;-58
2023/04/22 00:42:48;;;;;;;14.07;10.03;;;;;;;8.03;79.13;93107.78;513691;28;829;-58
2023/04/22 00:43:04;;;;;;;15.15;9.93;;;;;;;8.03;79.17;93108.50;515285;28;959;-58
2023/04/22 00:43:20;;;;;;;14.45;10.20;;;;;;;8.05;79.34;93105.97;515512;28;1092;-58
2023/04/22 00:43:35;;;;;;;13.83;10.00;;;;;;;8.06;79.13;93103.94;515612;28;881;-58
2023/04/22 00:43:52;;;;;;;14.17;10.43;;;;;;;8.09;79.03;93106.34;515974;28;923;-58
2023/04/22 00:44:11;;;;;;;13.02;10.73;;;;;;;8.09;79.03;93100.09;511445;29;908;-58
2023/04/22 00:44:27;;;;;;;12.35;9.95;;;;;;;8.14;79.12;93105.44;511722;28;1619;-58
2023/04/22 00:44:43;;;;;;;12.60;10.32;;;;;;;8.15;78.83;93103.44;512170;28;954;-57
2023/04/22 00:44:59;;;;;;;14.30;10.57;;;;;;;8.03;78.91;93085.78;513336;28;1120;-58
2023/04/22 00:45:16;;;;;;;14.10;9.95;;;;;;;8.16;78.79;93107.66;511626;28;959;-58
2023/04/22 00:45:33;;;;;;;11.90;9.82;;;;;;;8.19;78.70;93109.31;511628;28;857;-58
2023/04/22 00:45:48;;;;;;;11.32;9.38;;;;;;;8.18;78.48;93103.09;511655;28;869;-58
2023/04/22 00:46:04;;;;;;;13.20;10.07;;;;;;;8.09;78.15;93108.34;513316;28;1023;-58
2023/04/22 00:46:20;;;;;;;12.10;9.90;;;;;;;8.03;78.29;93107.78;513455;28;1907;-58
2023/04/22 00:46:37;;;;;;;15.10;9.82;;;;;;;8.01;78.30;93107.59;513687;28;782;-58
2023/04/22 00:46:52;;;;;;;16.77;11.55;;;;;;;8.02;78.38;93112.53;513831;28;1461;-58
2023/04/22 00:47:08;;;;;;;15.20;11.90;;;;;;;8.04;78.59;93109.22;513507;28;871;-58
2023/04/22 00:47:26;;;;;;;15.02;11.60;;;;;;;8.06;78.37;93101.91;513662;28;828;-58
2023/04/22 00:47:44;;;;;;;14.85;11.82;;;;;;;8.02;78.57;93100.78;513634;28;855;-58
2023/04/22 00:47:59;;;;;;;13.80;11.93;;;;;;;7.88;78.53;93096.69;513535;28;1167;-58
2023/04/22 00:48:15;;;;;;;13.27;11.43;;;;;;;7.94;78.79;93106.25;513552;28;1251;-58
2023/04/22 00:48:31;;;;;;;14.07;11.33;;;;;;;7.88;78.81;93099.44;513696;28;1510;-58
2023/04/22 00:48:46;;;;;;;15.68;11.70;;;;;;;7.74;78.88;93090.53;513579;28;1096;-58
2023/04/22 00:49:01;;;;;;;14.80;11.57;;;;;;;7.74;79.18;93109.03;513899;28;857;-58
2023/04/22 00:49:19;;;;;;;16.55;11.60;;;;;;;7.70;79.65;93111.38;513398;28;1365;-58
2023/04/22 00:49:35;;;;;;;17.63;11.75;;;;;;;7.67;79.77;93109.72;514782;28;926;-58
2023/04/22 00:49:50;;;;;;;15.98;11.93;;;;;;;7.65;80.01;93107.50;515919;28;894;-58
2023/04/22 00:50:08;;;;;;;17.03;12.50;;;;;;;7.65;80.04;93107.50;513799;28;814;-58
2023/04/22 00:50:23;;;;;;;17.02;12.43;;;;;;;7.63;80.30;93108.03;514309;28;1290;-58
2023/04/22 00:50:38;;;;;;;14.37;11.60;;;;;;;7.64;80.30;93106.75;515726;28;872;-58
2023/04/22 00:50:54;;;;;;;13.37;11.23;;;;;;;7.68;80.21;93108.44;516059;28;912;-58
2023/04/22 00:51:09;;;;;;;14.77;11.25;;;;;;;7.72;80.10;93108.81;515744;28;828;-57
2023/04/22 00:51:24;;;;;;;15.40;11.67;;;;;;;7.75;80.00;93105.75;515747;28;911;-58
2023/04/22 00:51:40;;;;;;;15.43;12.00;;;;;;;7.80;79.92;93109.63;515744;28;1037;-58
2023/04/22 00:51:55;;;;;;;15.93;11.73;;;;;;;7.82;80.00;93109.84;515071;28;1047;-58
2023/04/22 00:52:11;;;;;;;15.73;11.83;;;;;;;7.84;79.74;93110.03;514415;28;1378;-58
2023/04/22 00:52:26;;;;;;;18.17;12.57;;;;;;;7.86;79.59;93107.47;515764;28;860;-58
2023/04/22 00:52:41;;;;;;;19.77;13.00;;;;;;;7.88;79.72;93104.94;515818;28;807;-58
2023/04/22 00:52:57;;;;;;;18.07;12.93;;;;;;;7.89;79.45;93109.88;516064;28;829;-59
2023/04/22 00:53:12;;;;;;;16.38;12.68;;;;;;;7.94;79.38;93113.75;515750;28;896;-58
2023/04/22 00:53:28;;;;;;;17.07;12.60;;;;;;;7.92;79.29;93103.31;515617;28;1142;-59
2023/04/22 00:53:43;;;;;;;18.80;13.07;;;;;;;7.98;79.00;93112.13;514218;28;841;-58
2023/04/22 00:54:00;;;;;;;18.27;13.47;;;;;;;7.99;78.91;93105.34;516006;28;783;-58
2023/04/22 00:54:16;;;;;;;17.00;13.18;;;;;;;7.96;78.78;93111.19;515120;28;1914;-58
2023/04/22 00:54:33;;;;;;;19.60;13.05;;;;;;;7.90;78.82;93108.63;515282;28;915;-58
2023/04/22 00:54:48;;;;;;;19.23;13.80;;;;;;;7.84;79.02;93110.03;513837;28;846;-58
2023/04/22 00:55:04;;;;;;;18.17;14.03;;;;;;;7.85;79.22;93114.25;515587;28;1159;-58
2023/04/22 00:55:20;;;;;;;17.92;13.68;;;;;;;7.84;79.26;93116.25;517702;28;880;-58
2023/04/22 00:55:35;;;;;;;17.15;13.25;;;;;;;7.85;79.26;93114.97;517800;28;931;-58
2023/04/22 00:55:50;;;;;;;19.57;13.67;;;;;;;7.88;79.24;93115.91;517795;28;781;-57
2023/04/22 00:56:06;;;;;;;19.55;14.18;;;;;;;7.90;78.98;93111.38;513704;28;783;-56
2023/04/22 00:56:24;;;;;;;18.07;13.70;;;;;;;7.88;78.88;93102.19;514064;28;1085;-57
2023/04/22 00:56:39;;;;;;;17.27;13.05;;;;;;;7.94;79.09;93114.50;515657;28;893;-57
2023/04/22 00:56:56;;;;;;;15.88;13.00;;;;;;;7.96;78.65;93109.19;515923;28;838;-58
2023/04/22 00:57:12;;;;;;;16.88;12.85;;;;;;;7.98;78.66;93111.41;515104;28;1404;-58
2023/04/22 00:57:29;;;;;;;18.52;13.75;;;;;;;7.99;78.22;93113.59;513236;28;972;-56
2023/04/22 00:57:45;;;;;;;17.52;13.68;;;;;;;8.00;78.41;93114.34;513149;28;1084;-57
2023/04/22 00:58:02;;;;;;;17.92;13.48;;;;;;;8.00;77.99;93112.34;513265;28;1285;-56
2023/04/22 00:58:18;;;;;;;18.15;13.25;;;;;;;7.97;78.04;93104.44;513048;28;1323;-57
2023/04/22 00:58:33;;;;;;;19.10;13.57;;;;;;;8.04;77.99;93117.47;509709;29;878;-56
2023/04/22 00:58:49;;;;;;;19.53;14.10;;;;;;;8.04;77.90;93112.72;510048;28;1056;-57
2023/04/22 00:59:04;;;;;;;16.88;13.73;;;;;;;8.04;77.76;93114.72;511817;28;879;-57
2023/04/22 00:59:20;;;;;;;17.73;14.07;;;;;;;8.04;77.89;93111.97;512347;28;951;-58
2023/04/22 00:59:36;;;;;;;17.98;14.10;;;;;;;8.01;77.63;93113.06;511680;28;1586;-55
2023/04/22 00:59:52;;;;;;;16.93;14.53;;;;;;;8.03;77.92;93114.00;513396;28;1174;-56
2023/04/22 01:00:10;;;;;;;17.65;15.20;;;;;;;7.84;77.93;93082.53;513461;28;840;-56
2023/04/22 01:00:27;;;;;;;16.97;13.97;;;;;;;7.97;77.79;93112.69;515376;28;1397;-57
2023/04/22 01:00:42;;;;;;;17.35;13.60;;;;;;;7.93;77.84;93113.00;517143;28;930;-55
2023/04/22 01:00:57;;;;;;;17.67;13.33;;;;;;;7.86;77.75;93118.47;515978;28;816;-56
2023/04/22 01:01:13;;;;;;;16.83;13.27;;;;;;;7.77;78.20;93116.19;515618;28;1163;-55
2023/04/22 01:01:29;;;;;;;17.53;13.30;;;;;;;7.69;78.12;93121.63;515453;28;944;-56
2023/04/22 01:01:45;;;;;;;17.85;13.20;;;;;;;7.55;78.85;93117.50;515608;28;824;-56
2023/04/22 01:02:02;;;;;;;17.15;13.30;;;;;;;7.53;79.06;93115.28;516401;28;881;-55
2023/04/22 01:02:18;;;;;;;18.20;13.48;;;;;;;7.49;79.35;93117.63;514595;28;946;-56
2023/04/22 01:02:33;;;;;;;18.67;14.00;;;;;;;7.38;79.92;93112.41;513554;28;1687;-56
2023/04/22 01:02:48;;;;;;;19.13;13.70;;;;;;;7.26;79.99;93113.94;514562;28;1059;-57
2023/04/22 01:03:06;;;;;;;20.67;13.60;;;;;;;7.27;80.42;93125.66;515866;28;904;-56
2023/04/22 01:03:22;;;;;;;18.25;13.18;;;;;;;7.25;80.61;93117.22;515541;28;859;-55
2023/04/22 01:03:39;;;;;;;18.05;12.88;;;;;;;7.22;80.91;93118.28;515583;28;914;-54
2023/04/22 01:03:55;;;;;;;17.67;12.52;;;;;;;7.21;81.27;93117.53;515292;28;1275;-56
2023/04/22 01:04:11;;;;;;;16.45;12.18;;;;;;;7.20;81.25;93118.09;515562;28;806;-56
2023/04/22 01:04:26;;;;;;;15.98;12.05;;;;;;;7.13;81.30;93116.75;513744;28;1495;-56
2023/04/22 01:04:42;;;;;;;15.20;12.02;;;;;;;7.01;81.48;93115.53;513578;28;819;-55
2023/04/22 01:04:58;;;;;;;15.97;12.47;;;;;;;6.92;81.60;93112.50;513011;28;1249;-56
2023/04/22 01:05:13;;;;;;;14.48;11.77;;;;;;;6.91;82.16;93116.53;513512;28;1665;-56
2023/04/22 01:05:30;;;;;;;13.17;10.97;;;;;;;6.96;82.23;93123.88;511556;28;833;-56
2023/04/22 01:05:47;;;;;;;13.95;10.98;;;;;;;7.00;82.13;93114.06;512670;28;861;-55
2023/04/22 01:06:03;;;;;;;14.48;11.15;;;;;;;7.06;82.40;93109.16;513736;28;813;-55
2023/04/22 01:06:19;;;;;;;15.07;11.48;;;;;;;7.13;82.03;93121.50;513620;28;881;-55
2023/04/22 01:06:36;;;;;;;14.88;11.18;;;;;;;7.15;82.01;93116.94;513678;28;905;-57
2023/04/22 01:06:52;;;;;;;20.50;10.60;;;;;;;7.21;81.60;93128.53;515000;28;870;-56
2023/04/22 01:07:07;;;;;;;22.20;10.82;;;;;;;7.22;81.46;93119.03;515407;28;1119;-55
2023/04/22 01:07:23;;;;;;;17.98;10.32;;;;;;;7.24;81.48;93121.25;515567;28;940;-56
2023/04/22 01:07:38;;;;;;;14.20;10.00;;;;;;;7.26;81.30;93113.19;515687;28;860;-55
2023/04/22 01:07:54;;;;;;;12.73;10.10;;;;;;;7.29;81.14;93123.13;514878;28;1825;-55
2023/04/22 01:08:10;;;;;;;19.52;10.60;;;;;;;7.30;80.84;93122.59;513676;28;867;-55
2023/04/22 01:08:28;;;;;;;18.52;10.25;;;;;;;7.34;81.08;93122.97;513579;28;989;-56
2023/04/22 01:08:44;;;;;;;18.20;10.13;;;;;;;7.36;80.89;93114.22;514629;28;1174;-57
2023/04/22 01:08:59;;;;;;;21.08;10.85;;;;;;;7.37;80.78;93123.91;513632;28;819;-57
2023/04/22 01:09:15;;;;;;;17.67;10.40;;;;;;;7.37;80.52;93123.91;513591;28;1177;-56
2023/04/22 01:09:30;;;;;;;14.73;10.50;;;;;;;7.36;80.69;93123.19;513587;28;841;-57
2023/04/22 01:09:45;;;;;;;15.73;10.80;;;;;;;7.37;80.64;93124.66;513533;28;827;-56
2023/04/22 01:10:01;;;;;;;15.47;10.40;;;;;;;7.38;80.65;93120.66;513770;28;847;-55
2023/04/22 01:10:17;;;;;;;12.75;9.98;;;;;;;7.41;80.55;93118.81;514268;28;1132;-56
2023/04/22 01:10:33;;;;;;;11.55;9.75;;;;;;;7.44;80.28;93123.25;515493;28;1628;-56
2023/04/22 01:10:48;;;;;;;14.88;10.60;;;;;;;7.46;80.39;93123.47;514516;28;948;-57
2023/04/22 01:11:04;;;;;;;16.10;10.87;;;;;;;7.48;79.98;93126.41;514804;28;849;-56
2023/04/22 01:11:20;;;;;;;12.65;10.32;;;;;;;7.48;79.98;93127.16;513447;28;1236;-57
2023/04/22 01:11:35;;;;;;;13.43;10.18;;;;;;;7.50;79.92;93124.59;513510;28;1235;-58
2023/04/22 01:11:51;;;;;;;13.93;9.77;;;;;;;7.52;79.72;93119.31;513582;28;2319;-55
2023/04/22 01:12:06;;;;;;;13.95;10.10;;;;;;;7.53;79.65;93120.78;513548;28;966;-56
2023/04/22 01:12:22;;;;;;;15.93;10.30;;;;;;;7.52;79.56;93124.06;515550;28;1265;-56
2023/04/22 01:12:37;;;;;;;17.23;11.18;;;;;;;7.52;79.38;93124.06;514976;28;1215;-56
2023/04/22 01:12:52;;;;;;;16.93;12.00;;;;;;;7.52;79.13;93122.06;513867;28;912;-56
2023/04/22 01:13:08;;;;;;;18.63;11.63;;;;;;;7.53;79.25;93125.53;515170;28;1096;-57
2023/04/22 01:13:24;;;;;;;19.27;11.80;;;;;;;7.53;79.09;93128.28;515549;28;956;-55
2023/04/22 01:13:40;;;;;;;17.35;12.02;;;;;;;7.53;79.07;93117.31;515777;28;775;-55
2023/04/22 01:13:55;;;;;;;16.75;12.50;;;;;;;7.53;78.95;93120.78;516032;28;815;-55
2023/04/22 01:14:10;;;;;;;17.90;12.90;;;;;;;7.52;78.77;93124.06;515639;28;1926;-55
2023/04/22 01:14:26;;;;;;;19.97;13.87;;;;;;;7.36;78.97;93119.72;515538;28;1168;-55
2023/04/22 01:14:41;;;;;;;19.17;13.63;;;;;;;7.14;79.25;93118.22;511663;28;818;-52
2023/04/22 01:14:57;;;;;;;20.53;13.27;;;;;;;7.01;79.77;93129.25;513542;28;1632;-55
2023/04/22 01:15:12;;;;;;;22.13;13.70;;;;;;;6.89;80.42;93123.28;513678;28;773;-54
2023/04/22 01:15:28;;;;;;;19.87;12.93;;;;;;;6.84;80.71;93126.16;513545;28;817;-55
2023/04/22 01:15:43;;;;;;;18.33;12.38;;;;;;;6.86;81.05;93123.63;511623;28;840;-54
2023/04/22 01:15:59;;;;;;;18.67;12.70;;;;;;;6.86;81.19;93124.31;511446;28;1218;-55
2023/04/22 01:16:14;;;;;;;18.42;12.30;;;;;;;6.94;80.97;93120.94;512026;28;1220;-53